Time;durP1;ratioP1;P1;durP2;ratioP2;P2;SDS_P1;SDS_P2;PMS_P1;PMS_P2;Temp;Humidity;BMP_temperature;BMP_pressure;BME280_temperature;BME280_humidity;BME280_pressure;Samples;Min_cycle;Max_cycle;Signal;HPM_P1;HPM_P2
2023/04/23 00:00:24;0.00;0.00;0.62;0.00;0.00;0.62;2.20;1.60;;;27.70;22.30;;;;;;2271664;61;20826;-66
2023/04/23 00:03:13;0.00;0.00;0.62;0.00;0.00;0.62;1.90;1.50;;;27.60;22.30;;;;;;2272096;61;20361;-63
2023/04/23 00:05:58;0.00;0.00;0.62;0.00;0.00;0.62;2.27;1.57;;;27.70;22.30;;;;;;2272215;61;20381;-65
2023/04/23 00:08:46;0.00;0.00;0.62;0.00;0.00;0.62;1.80;1.27;;;27.70;22.30;;;;;;2271841;61;20381;-64
2023/04/23 00:11:32;0.00;0.00;0.62;0.00;0.00;0.62;2.03;1.60;;;27.70;22.30;;;;;;2271468;61;20415;-65
2023/04/23 00:14:16;0.00;0.00;0.62;0.00;0.00;0.62;2.07;1.47;;;27.70;22.30;;;;;;2271825;61;20366;-68
2023/04/23 00:17:01;0.00;0.00;0.62;0.00;0.00;0.62;1.70;1.27;;;27.70;22.30;;;;;;2272551;61;20399;-64
2023/04/23 00:19:46;0.00;0.00;0.62;0.00;0.00;0.62;3.07;1.90;;;27.70;22.30;;;;;;2272450;61;20382;-64
2023/04/23 00:22:31;0.00;0.00;0.62;0.00;0.00;0.62;2.30;1.93;;;27.70;22.30;;;;;;2272622;61;20884;-64
2023/04/23 00:25:17;0.00;0.00;0.62;0.00;0.00;0.62;2.47;1.73;;;27.60;22.30;;;;;;2272735;61;20806;-66
2023/04/23 00:28:02;0.00;0.00;0.62;0.00;0.00;0.62;2.20;1.50;;;27.70;22.30;;;;;;2272737;61;20763;-65
2023/04/23 00:30:47;0.00;0.00;0.62;0.00;0.00;0.62;1.90;1.50;;;27.60;22.30;;;;;;2268827;61;20399;-65
2023/04/23 00:33:32;0.00;0.00;0.62;0.00;0.00;0.62;2.10;1.63;;;27.60;22.30;;;;;;2272869;61;20365;-67
2023/04/23 00:36:16;0.00;0.00;0.62;0.00;0.00;0.62;1.93;1.40;;;27.60;22.30;;;;;;2273245;61;20858;-64
2023/04/23 00:39:01;0.00;0.00;0.62;0.00;0.00;0.62;1.80;1.40;;;27.60;22.30;;;;;;2269075;61;20945;-65
2023/04/23 00:41:48;0.00;0.00;0.62;0.00;0.00;0.62;3.47;2.17;;;27.60;22.30;;;;;;2272796;61;20883;-65
2023/04/23 00:44:32;0.00;0.00;0.62;0.00;0.00;0.62;2.30;1.60;;;27.60;22.30;;;;;;2269026;61;20936;-65
2023/04/23 00:47:19;0.00;0.00;0.62;0.00;0.00;0.62;2.00;1.60;;;27.60;22.30;;;;;;2272271;61;20400;-67
2023/04/23 00:50:07;0.00;0.00;0.62;0.00;0.00;0.62;2.30;1.87;;;27.60;22.30;;;;;;2272385;61;20378;-64
2023/04/23 00:52:51;0.00;0.00;0.62;0.00;0.00;0.62;2.13;1.47;;;27.60;22.40;;;;;;2272546;61;20824;-65
2023/04/23 00:55:36;0.00;0.00;0.62;0.00;0.00;0.62;2.17;1.50;;;27.60;22.30;;;;;;2268991;61;20355;-65
2023/04/23 00:58:23;0.00;0.00;0.62;0.00;0.00;0.62;1.70;1.30;;;27.60;22.30;;;;;;2269543;61;20366;-65
2023/04/23 01:01:08;0.00;0.00;0.62;0.00;0.00;0.62;2.23;1.60;;;27.60;22.30;;;;;;2272084;61;20404;-66
2023/04/23 01:03:53;0.00;0.00;0.62;0.00;0.00;0.62;2.13;1.70;;;27.60;22.30;;;;;;2269529;61;20443;-64
2023/04/23 01:06:38;0.00;0.00;0.62;0.00;0.00;0.62;2.17;1.73;;;27.60;22.30;;;;;;2272462;61;20796;-65
2023/04/23 01:12:12;0.00;0.00;0.62;0.00;0.00;0.62;2.50;1.50;;;27.60;22.40;;;;;;2274523;61;20392;-65
2023/04/23 01:14:59;0.00;0.00;0.62;0.00;0.00;0.62;2.20;1.70;;;27.60;22.40;;;;;;2268892;61;20362;-65
2023/04/23 01:17:44;0.00;0.00;0.62;0.00;0.00;0.62;1.97;1.53;;;27.60;22.40;;;;;;2269380;61;20758;-65
2023/04/23 01:20:29;0.00;0.00;0.62;0.00;0.00;0.62;2.00;1.40;;;27.60;22.40;;;;;;2276193;60;20427;-65
2023/04/23 01:23:16;0.00;0.00;0.62;0.00;0.00;0.62;2.20;1.37;;;27.60;22.40;;;;;;2270539;60;20361;-65
2023/04/23 01:26:01;0.00;0.00;0.62;0.00;0.00;0.62;1.70;1.20;;;27.60;22.40;;;;;;2276732;60;20424;-65
2023/04/23 01:28:46;0.00;0.00;0.62;0.00;0.00;0.62;2.00;1.47;;;27.60;22.40;;;;;;2272930;60;20434;-65
2023/04/23 01:31:31;0.00;0.00;0.62;0.00;0.00;0.62;1.87;1.30;;;27.50;22.30;;;;;;2273339;60;20454;-65
2023/04/23 01:34:16;0.00;0.00;0.62;0.00;0.00;0.62;1.73;1.43;;;27.60;22.40;;;;;;2276795;60;20361;-65
2023/04/23 01:37:03;0.00;0.00;0.62;0.00;0.00;0.62;1.87;1.40;;;27.50;22.30;;;;;;2276112;60;20353;-65
2023/04/23 01:39:49;0.00;0.00;0.62;0.00;0.00;0.62;1.63;1.10;;;27.50;22.30;;;;;;2276452;60;20505;-65
2023/04/23 01:42:33;0.00;0.00;0.62;0.00;0.00;0.62;1.60;1.20;;;27.50;22.40;;;;;;2276607;60;20393;-65
2023/04/23 01:45:18;0.00;0.00;0.62;0.00;0.00;0.62;2.27;1.60;;;27.50;22.30;;;;;;2273088;60;20434;-65
2023/04/23 01:48:03;0.00;0.00;0.62;0.00;0.00;0.62;2.00;1.40;;;27.50;22.40;;;;;;2276650;60;20397;-65
2023/04/23 01:50:49;0.00;0.00;0.62;0.00;0.00;0.62;1.90;1.20;;;27.50;22.30;;;;;;2272980;60;20788;-64
2023/04/23 01:53:34;0.00;0.00;0.62;0.00;0.00;0.62;1.87;1.33;;;27.50;22.30;;;;;;2276214;60;20770;-65
2023/04/23 01:56:25;0.00;0.00;0.62;0.00;0.00;0.62;1.73;1.23;;;27.50;22.30;;;;;;2276659;60;20358;-65
2023/04/23 01:59:24;0.00;0.00;0.62;0.00;0.00;0.62;2.00;1.40;;;27.50;22.30;;;;;;2294895;39;20412;-64
2023/04/23 02:02:12;0.00;0.00;0.62;0.00;0.00;0.62;1.70;1.30;;;27.50;22.40;;;;;;2278287;60;20369;-71
2023/04/23 02:04:59;0.00;0.00;0.62;0.00;0.00;0.62;1.83;1.23;;;27.50;22.40;;;;;;2276625;60;20354;-65
2023/04/23 02:07:45;0.00;0.00;0.62;0.00;0.00;0.62;1.67;1.17;;;27.50;22.40;;;;;;2273244;60;20927;-65
2023/04/23 02:10:30;0.00;0.00;0.62;0.00;0.00;0.62;1.70;1.40;;;27.50;22.40;;;;;;2271677;61;20374;-64
2023/04/23 02:13:16;0.00;0.00;0.62;0.00;0.00;0.62;1.70;1.30;;;27.50;22.40;;;;;;2269023;61;20394;-65
2023/04/23 02:16:01;0.00;0.00;0.62;0.00;0.00;0.62;2.00;1.30;;;27.50;22.40;;;;;;2272281;61;20408;-65
2023/04/23 02:18:45;0.00;0.00;0.62;0.00;0.00;0.62;1.70;1.30;;;27.50;22.40;;;;;;2272280;61;20405;-65
2023/04/23 02:21:30;0.00;0.00;0.62;0.00;0.00;0.62;2.40;1.27;;;27.50;22.40;;;;;;2272101;61;20467;-66
2023/04/23 02:24:15;0.00;0.00;0.62;0.00;0.00;0.62;1.60;1.17;;;27.50;22.40;;;;;;2269246;61;20361;-65
2023/04/23 02:27:00;0.00;0.00;0.62;0.00;0.00;0.62;1.73;1.33;;;27.50;22.40;;;;;;2268793;61;20366;-65
2023/04/23 02:29:48;0.00;0.00;0.62;0.00;0.00;0.62;1.73;1.40;;;27.50;22.40;;;;;;2271844;61;20378;-65
2023/04/23 02:32:33;0.00;0.00;0.62;0.00;0.00;0.62;2.00;1.27;;;27.50;22.40;;;;;;2272481;61;20759;-67
2023/04/23 02:35:18;0.00;0.00;0.62;0.00;0.00;0.62;1.70;1.07;;;27.40;22.30;;;;;;2272034;61;20394;-64
2023/04/23 02:38:03;0.00;0.00;0.62;0.00;0.00;0.62;1.93;1.37;;;27.50;22.40;;;;;;2272083;60;20363;-65
2023/04/23 02:40:48;0.00;0.00;0.62;0.00;0.00;0.62;1.60;1.23;;;27.50;22.40;;;;;;2272180;61;20419;-64
2023/04/23 02:43:33;0.00;0.00;0.62;0.00;0.00;0.62;1.87;1.20;;;27.50;22.40;;;;;;2268605;61;20354;-65
2023/04/23 02:46:19;0.00;0.00;0.62;0.00;0.00;0.62;2.20;1.10;;;27.50;22.40;;;;;;2272394;61;20382;-64
2023/04/23 02:49:05;0.00;0.00;0.62;0.00;0.00;0.62;1.90;1.40;;;27.50;22.40;;;;;;2272006;61;20414;-64
2023/04/23 02:51:50;0.00;0.00;0.62;0.00;0.00;0.62;1.73;1.40;;;27.40;22.40;;;;;;2268792;61;20408;-65
2023/04/23 02:54:37;0.00;0.00;0.62;0.00;0.00;0.62;1.70;1.30;;;27.40;22.40;;;;;;2268958;61;20768;-65
2023/04/23 02:57:23;0.00;0.00;0.62;0.00;0.00;0.62;1.90;1.20;;;27.40;22.40;;;;;;2266329;61;20382;-65
2023/04/23 03:00:11;0.00;0.00;0.62;0.00;0.00;0.62;1.93;1.13;;;27.40;22.40;;;;;;2268281;61;20381;-65
2023/04/23 03:03:00;0.00;0.00;0.62;0.00;0.00;0.62;1.70;1.23;;;27.40;22.90;;;;;;2272609;61;20439;-65
2023/04/23 03:05:45;0.00;0.00;0.62;0.00;0.00;0.62;1.70;1.27;;;27.40;22.40;;;;;;2268849;61;20406;-65
2023/04/23 03:08:29;0.00;0.00;0.62;0.00;0.00;0.62;1.67;1.10;;;27.40;22.40;;;;;;2272369;61;20428;-65
2023/04/23 03:11:14;0.00;0.00;0.62;0.00;0.00;0.62;1.70;1.20;;;27.40;22.40;;;;;;2272039;61;20354;-65
2023/04/23 03:13:59;0.00;0.00;0.62;0.00;0.00;0.62;1.70;0.90;;;27.40;22.40;;;;;;2271984;61;20358;-68
2023/04/23 03:16:43;0.00;0.00;0.62;0.00;0.00;0.62;1.50;1.10;;;27.40;22.40;;;;;;2269108;61;20354;-64
2023/04/23 03:19:29;0.00;0.00;0.62;0.00;0.00;0.62;1.50;1.10;;;27.40;22.40;;;;;;2268311;61;20428;-65
2023/04/23 03:22:15;0.00;0.00;0.62;0.00;0.00;0.62;1.60;1.00;;;27.40;22.40;;;;;;2268837;61;20789;-65
2023/04/23 03:25:00;0.00;0.00;0.62;0.00;0.00;0.62;1.70;1.10;;;27.40;22.40;;;;;;2268929;61;20394;-65
2023/04/23 03:27:45;0.00;0.00;0.62;0.00;0.00;0.62;1.77;1.20;;;27.40;22.40;;;;;;2268856;61;20382;-64
2023/04/23 03:30:31;0.00;0.00;0.62;0.00;0.00;0.62;1.67;1.00;;;27.40;22.40;;;;;;2297099;56;20933;-65
2023/04/23 03:33:16;0.00;0.00;0.62;0.00;0.00;0.62;1.50;1.10;;;27.40;22.40;;;;;;2276169;60;20897;-65
2023/04/23 03:36:03;0.00;0.00;0.62;0.00;0.00;0.62;1.60;1.30;;;27.40;22.40;;;;;;2276037;60;20365;-65
2023/04/23 03:38:50;0.00;0.00;0.62;0.00;0.00;0.62;1.90;1.30;;;27.30;22.40;;;;;;2275512;60;20469;-64
2023/04/23 03:41:35;0.00;0.00;0.62;0.00;0.00;0.62;2.13;1.37;;;27.40;22.40;;;;;;2275548;60;20427;-65
2023/04/23 03:44:20;0.00;0.00;0.62;0.00;0.00;0.62;1.60;0.90;;;27.30;22.40;;;;;;2275693;60;20373;-65
2023/04/23 03:47:05;0.00;0.00;0.62;0.00;0.00;0.62;1.73;1.23;;;27.30;22.40;;;;;;2278453;60;20405;-64
2023/04/23 03:49:50;0.00;0.00;0.62;0.00;0.00;0.62;1.70;1.30;;;27.30;22.40;;;;;;2275162;60;20397;-65
2023/04/23 03:52:36;0.00;0.00;0.62;0.00;0.00;0.62;1.60;1.10;;;27.30;22.40;;;;;;2275974;60;20418;-66
2023/04/23 03:55:22;0.00;0.00;0.62;0.00;0.00;0.62;1.47;1.03;;;27.30;22.40;;;;;;2275541;60;20777;-65
2023/04/23 03:58:08;0.00;0.00;0.62;0.00;0.00;0.62;1.30;0.90;;;27.30;22.40;;;;;;2275430;60;20422;-65
2023/04/23 04:01:04;0.00;0.00;0.62;0.00;0.00;0.62;1.73;1.20;;;27.30;22.40;;;;;;2275699;60;20361;-65
2023/04/23 04:03:49;0.00;0.00;0.62;0.00;0.00;0.62;1.40;1.07;;;27.30;22.40;;;;;;2275868;60;20473;-64
2023/04/23 04:06:34;0.00;0.00;0.62;0.00;0.00;0.62;1.73;1.20;;;27.30;22.40;;;;;;2276207;60;20797;-65
2023/04/23 04:09:21;0.00;0.00;0.62;0.00;0.00;0.62;1.50;1.30;;;27.30;22.40;;;;;;2275316;60;20385;-65
2023/04/23 04:12:06;0.00;0.00;0.62;0.00;0.00;0.62;1.80;1.20;;;27.30;22.40;;;;;;2276134;60;20422;-65
2023/04/23 04:14:50;0.00;0.00;0.62;0.00;0.00;0.62;1.50;1.10;;;27.30;22.90;;;;;;2275615;60;20381;-65
2023/04/23 04:17:35;0.00;0.00;0.62;0.00;0.00;0.62;1.50;1.00;;;27.30;22.40;;;;;;2276272;60;20446;-64
2023/04/23 04:20:20;0.00;0.00;0.62;0.00;0.00;0.62;1.53;1.00;;;27.20;22.40;;;;;;2275475;60;20417;-66
2023/04/23 04:23:05;0.00;0.00;0.62;0.00;0.00;0.62;1.83;1.53;;;27.30;22.40;;;;;;2276148;60;20403;-65
2023/04/23 04:25:55;0.00;0.00;0.62;0.00;0.00;0.62;1.30;0.90;;;27.30;22.40;;;;;;2275923;60;20385;-65
2023/04/23 04:28:40;0.00;0.00;0.62;0.00;0.00;0.62;1.43;1.03;;;27.30;22.40;;;;;;2275906;60;20906;-67
2023/04/23 04:31:27;0.00;0.00;0.62;0.00;0.00;0.62;1.60;1.10;;;27.30;22.40;;;;;;2276208;60;20399;-65
2023/04/23 04:34:13;0.00;0.00;0.62;0.00;0.00;0.62;1.50;0.97;;;27.30;22.40;;;;;;2275842;60;20353;-67
2023/04/23 04:36:58;0.00;0.00;0.62;0.00;0.00;0.62;1.80;1.43;;;27.20;22.40;;;;;;2276156;60;20377;-65
2023/04/23 04:39:43;0.00;0.00;0.62;0.00;0.00;0.62;1.50;1.20;;;27.20;22.40;;;;;;2275737;60;20412;-65
2023/04/23 04:42:29;0.00;0.00;0.62;0.00;0.00;0.62;1.70;1.10;;;27.20;22.40;;;;;;2275574;60;20377;-65
2023/04/23 04:45:15;0.00;0.00;0.62;0.00;0.00;0.62;1.90;1.07;;;27.20;22.40;;;;;;2276080;60;20392;-65
2023/04/23 04:48:00;0.00;0.00;0.62;0.00;0.00;0.62;1.50;1.00;;;27.20;22.40;;;;;;2275940;60;20810;-65
2023/04/23 04:50:45;0.00;0.00;0.62;0.00;0.00;0.62;1.80;1.20;;;27.20;22.40;;;;;;2275585;60;20881;-65
2023/04/23 04:53:30;0.00;0.00;0.62;0.00;0.00;0.62;1.70;1.30;;;27.20;22.40;;;;;;2276104;60;20410;-65
2023/04/23 04:56:15;0.00;0.00;0.62;0.00;0.00;0.62;1.80;1.40;;;27.20;22.40;;;;;;2275871;60;20762;-65
2023/04/23 04:59:02;0.00;0.00;0.62;0.00;0.00;0.62;1.80;1.43;;;27.20;22.40;;;;;;2275527;60;20419;-64
2023/04/23 05:01:47;0.00;0.00;0.62;0.00;0.00;0.62;1.43;1.00;;;27.20;22.40;;;;;;2275924;60;20369;-65
2023/04/23 05:04:32;0.00;0.00;0.62;0.00;0.00;0.62;1.40;0.90;;;27.20;22.40;;;;;;2276234;60;20760;-65
2023/04/23 05:07:17;0.00;0.00;0.62;0.00;0.00;0.62;2.30;1.70;;;27.20;22.40;;;;;;2276602;60;20481;-64
2023/04/23 05:10:02;0.00;0.00;0.62;0.00;0.00;0.62;1.50;1.00;;;27.20;22.40;;;;;;2276594;60;20412;-64
2023/04/23 05:12:46;0.00;0.00;0.62;0.00;0.00;0.62;1.40;0.90;;;27.20;22.40;;;;;;2276647;60;20360;-66
2023/04/23 05:15:32;0.00;0.00;0.62;0.00;0.00;0.62;1.60;1.13;;;27.20;22.40;;;;;;2276824;60;20521;-64
2023/04/23 05:18:17;0.00;0.00;0.62;0.00;0.00;0.62;1.70;1.17;;;27.20;22.40;;;;;;2276274;60;20365;-65
2023/04/23 05:21:02;0.00;0.00;0.62;0.00;0.00;0.62;1.73;1.17;;;27.10;22.40;;;;;;2276423;60;20813;-65
2023/04/23 05:23:48;0.00;0.00;0.62;0.00;0.00;0.62;1.60;1.10;;;27.20;22.40;;;;;;2276682;60;20503;-65
2023/04/23 05:26:33;0.00;0.00;0.62;0.00;0.00;0.62;1.83;1.50;;;27.20;22.40;;;;;;2276332;60;20388;-64
2023/04/23 05:29:18;0.00;0.00;0.62;0.00;0.00;0.62;1.70;1.13;;;27.20;22.40;;;;;;2276401;60;20470;-65
2023/04/23 05:32:04;0.00;0.00;0.62;0.00;0.00;0.62;1.80;1.20;;;27.10;22.40;;;;;;2276735;60;20385;-65
2023/04/23 05:34:49;0.00;0.00;0.62;0.00;0.00;0.62;1.70;1.10;;;27.10;22.40;;;;;;2276429;60;20869;-64
2023/04/23 05:37:34;0.00;0.00;0.62;0.00;0.00;0.62;1.40;1.00;;;27.20;22.50;;;;;;2276326;60;20822;-65
2023/04/23 05:40:19;0.00;0.00;0.62;0.00;0.00;0.62;1.60;1.10;;;27.10;22.40;;;;;;2275925;60;20389;-65
2023/04/23 05:43:03;0.00;0.00;0.62;0.00;0.00;0.62;1.93;1.23;;;27.20;22.50;;;;;;2276714;60;20369;-64
2023/04/23 05:45:48;0.00;0.00;0.62;0.00;0.00;0.62;2.23;1.50;;;27.10;22.40;;;;;;2276437;60;20385;-64
2023/04/23 05:48:34;0.00;0.00;0.62;0.00;0.00;0.62;1.80;1.30;;;27.10;22.40;;;;;;2276108;60;20434;-65
2023/04/23 05:51:19;0.00;0.00;0.62;0.00;0.00;0.62;1.70;1.20;;;27.10;22.40;;;;;;2276703;60;20365;-65
2023/04/23 05:54:04;0.00;0.00;0.62;0.00;0.00;0.62;2.07;1.53;;;27.10;22.40;;;;;;2275999;60;20494;-65
2023/04/23 05:56:49;0.00;0.00;0.62;0.00;0.00;0.62;2.00;1.40;;;27.10;22.40;;;;;;2276312;60;20373;-64
2023/04/23 05:59:34;0.00;0.00;0.62;0.00;0.00;0.62;1.63;1.17;;;27.10;22.40;;;;;;2276168;60;20409;-65
2023/04/23 06:02:19;0.00;0.00;0.62;0.00;0.00;0.62;2.17;1.33;;;27.10;22.40;;;;;;2276442;60;20365;-65
2023/04/23 06:05:06;0.00;0.00;0.62;0.00;0.00;0.62;1.97;1.37;;;27.10;22.90;;;;;;2276408;60;20361;-64
2023/04/23 06:07:52;0.00;0.00;0.62;0.00;0.00;0.62;1.80;1.43;;;27.10;22.40;;;;;;2276355;60;20439;-64
2023/04/23 06:10:36;0.00;0.00;0.62;0.00;0.00;0.62;2.03;1.33;;;27.10;22.40;;;;;;2275950;60;20365;-64
2023/04/23 06:13:21;0.00;0.00;0.62;0.00;0.00;0.62;2.13;1.50;;;27.10;22.40;;;;;;2276123;60;20882;-65
2023/04/23 06:16:07;0.00;0.00;0.62;0.00;0.00;0.62;1.97;1.60;;;27.10;22.40;;;;;;2276461;60;20362;-65
2023/04/23 06:18:53;0.00;0.00;0.62;0.00;0.00;0.62;2.50;1.50;;;27.10;22.40;;;;;;2275660;60;20458;-64
2023/04/23 06:21:39;0.00;0.00;0.62;0.00;0.00;0.62;2.47;1.50;;;27.10;22.40;;;;;;2276675;60;20365;-65
2023/04/23 06:24:24;0.00;0.00;0.62;0.00;0.00;0.62;2.23;1.50;;;27.10;22.40;;;;;;2276047;60;20899;-65
2023/04/23 06:27:08;0.00;0.00;0.62;0.00;0.00;0.62;2.00;1.50;;;27.00;22.40;;;;;;2276368;60;20917;-68
2023/04/23 06:29:56;0.00;0.00;0.62;0.00;0.00;0.62;2.30;1.60;;;27.10;22.40;;;;;;2275671;60;20890;-64
2023/04/23 06:32:41;0.00;0.00;0.62;0.00;0.00;0.62;2.20;1.47;;;27.00;22.40;;;;;;2275831;60;20361;-64
2023/04/23 06:35:26;0.00;0.00;0.62;0.00;0.00;0.62;2.00;1.50;;;27.00;22.40;;;;;;2276601;60;20757;-64
2023/04/23 06:38:12;0.00;0.00;0.62;0.00;0.00;0.62;1.93;1.70;;;27.00;22.40;;;;;;2276445;60;20373;-65
2023/04/23 06:40:57;0.00;0.00;0.62;0.00;0.00;0.62;2.60;2.00;;;27.00;22.40;;;;;;2275844;60;20445;-65
2023/04/23 06:43:42;0.00;0.00;0.62;0.00;0.00;0.62;2.30;1.67;;;27.00;22.40;;;;;;2276407;60;20377;-64
2023/04/23 06:46:46;0.00;0.00;0.62;0.00;0.00;0.62;2.33;1.77;;;27.00;22.40;;;;;;2275642;60;20911;-64
2023/04/23 06:49:30;0.00;0.00;0.62;0.00;0.00;0.62;2.10;1.70;;;27.00;22.40;;;;;;2275730;60;20461;-64
2023/04/23 06:52:15;0.00;0.00;0.62;0.00;0.00;0.62;2.00;1.30;;;27.00;22.40;;;;;;2276449;60;20399;-64
2023/04/23 06:55:02;0.00;0.00;0.62;0.00;0.00;0.62;2.50;1.73;;;27.00;22.40;;;;;;2276312;60;20361;-64
2023/04/23 06:57:47;0.00;0.00;0.62;0.00;0.00;0.62;2.20;1.97;;;27.00;22.40;;;;;;2276257;60;20373;-65
2023/04/23 07:00:32;0.00;0.00;0.62;0.00;0.00;0.62;2.13;1.73;;;27.00;22.40;;;;;;2276150;60;20393;-65
2023/04/23 07:03:18;0.00;0.00;0.62;0.00;0.00;0.62;2.20;1.47;;;27.00;22.50;;;;;;2276168;60;20495;-65
2023/04/23 07:06:04;0.00;0.00;0.62;0.00;0.00;0.62;2.47;1.80;;;27.00;22.40;;;;;;2276285;60;20388;-65
2023/04/23 07:08:48;0.00;0.00;0.62;0.00;0.00;0.62;1.83;1.50;;;27.00;22.40;;;;;;2276118;60;20381;-65
2023/04/23 07:11:35;0.00;0.00;0.62;0.00;0.00;0.62;1.90;1.43;;;27.00;22.40;;;;;;2276112;60;20406;-65
2023/04/23 07:14:20;0.00;0.00;0.62;0.00;0.00;0.62;2.37;1.83;;;27.00;22.40;;;;;;2276348;60;20658;-65
2023/04/23 07:17:05;0.00;0.00;0.62;0.00;0.00;0.62;2.10;1.60;;;27.00;22.50;;;;;;2276303;60;20438;-64
2023/04/23 07:19:50;0.00;0.00;0.62;0.00;0.00;0.62;1.90;1.40;;;27.00;22.40;;;;;;2275847;60;20381;-65
2023/04/23 07:22:34;0.00;0.00;0.62;0.00;0.00;0.62;1.93;1.73;;;27.00;22.50;;;;;;2276430;60;20360;-64
2023/04/23 07:25:21;0.00;0.00;0.62;0.00;0.00;0.62;1.97;1.53;;;27.00;22.50;;;;;;2275990;60;20769;-64
2023/04/23 07:28:07;0.00;0.00;0.62;0.00;0.00;0.62;2.23;1.60;;;27.00;22.50;;;;;;2278861;60;20512;-64
2023/04/23 07:30:51;0.00;0.00;0.62;0.00;0.00;0.62;2.97;2.20;;;27.00;22.50;;;;;;2278231;60;20490;-64
2023/04/23 07:33:36;0.00;0.00;0.62;0.00;0.00;0.62;2.17;1.43;;;27.00;22.50;;;;;;2276096;60;20935;-66
2023/04/23 07:36:21;0.00;0.00;0.62;0.00;0.00;0.62;1.90;1.60;;;27.00;22.50;;;;;;2276525;60;20430;-65
2023/04/23 07:39:06;0.00;0.00;0.62;0.00;0.00;0.62;2.00;1.60;;;27.00;22.50;;;;;;2275558;60;20384;-64
2023/04/23 07:41:50;0.00;0.00;0.62;0.00;0.00;0.62;2.20;1.80;;;27.00;22.50;;;;;;2276328;60;20357;-64
2023/04/23 07:44:36;0.00;0.00;0.62;0.00;0.00;0.62;2.20;1.90;;;27.00;22.50;;;;;;2276177;60;20389;-64
2023/04/23 07:47:21;0.00;0.00;0.62;0.00;0.00;0.62;2.33;1.70;;;27.00;22.50;;;;;;2275589;60;20944;-65
2023/04/23 07:50:07;0.00;0.00;0.62;0.00;0.00;0.62;1.90;1.47;;;27.00;22.50;;;;;;2276052;60;20906;-65
2023/04/23 07:52:52;0.00;0.00;0.62;0.00;0.00;0.62;2.73;2.03;;;27.00;22.50;;;;;;2278676;60;20361;-65
2023/04/23 07:55:37;0.00;0.00;0.62;0.00;0.00;0.62;2.60;1.83;;;27.00;22.50;;;;;;2276289;60;20812;-65
2023/04/23 07:58:22;0.00;0.00;0.62;0.00;0.00;0.62;2.47;1.90;;;27.00;22.50;;;;;;2276253;60;20415;-67
2023/04/23 08:01:08;0.00;0.00;0.62;0.00;0.00;0.62;2.53;1.93;;;27.00;22.50;;;;;;2275915;60;20446;-65
2023/04/23 08:03:54;0.00;0.00;0.62;0.00;0.00;0.62;2.77;2.13;;;27.00;22.50;;;;;;2276003;60;20361;-66
2023/04/23 08:06:40;0.00;0.00;0.62;0.00;0.00;0.62;2.20;1.80;;;27.00;22.50;;;;;;2276095;60;20372;-65
2023/04/23 08:09:25;0.00;0.00;0.62;0.00;0.00;0.62;2.73;2.10;;;27.00;22.50;;;;;;2275398;60;20373;-65
2023/04/23 08:12:10;0.00;0.00;0.62;0.00;0.00;0.62;2.60;2.10;;;27.00;22.50;;;;;;2276319;60;20484;-65
2023/04/23 08:14:55;0.00;0.00;0.62;0.00;0.00;0.62;2.67;1.93;;;27.00;22.50;;;;;;2276093;60;20407;-65
2023/04/23 08:17:47;0.00;0.00;0.62;0.00;0.00;0.62;2.63;1.70;;;27.00;22.50;;;;;;2275568;60;20766;-65
2023/04/23 08:20:32;0.00;0.00;0.62;0.00;0.00;0.62;3.20;2.33;;;27.00;22.50;;;;;;2275902;60;20385;-65
2023/04/23 08:23:17;0.00;0.00;0.62;0.00;0.00;0.62;2.50;2.10;;;27.00;23.10;;;;;;2275719;60;20365;-65
2023/04/23 08:26:02;0.00;0.00;0.62;0.00;0.00;0.62;2.40;2.00;;;27.00;22.50;;;;;;2276169;60;20388;-64
2023/04/23 08:28:46;0.00;0.00;0.62;0.00;0.00;0.62;2.43;1.90;;;27.00;22.50;;;;;;2276203;60;20586;-65
2023/04/23 08:31:31;0.00;0.00;0.62;0.00;0.00;0.62;2.40;2.10;;;27.00;22.50;;;;;;2275525;60;20647;-65
2023/04/23 08:34:17;0.00;0.00;0.62;0.00;0.00;0.62;2.70;2.17;;;27.00;22.50;;;;;;2276029;60;20423;-64
2023/04/23 08:37:03;0.00;0.00;0.62;0.00;0.00;0.62;2.43;2.10;;;27.00;22.50;;;;;;2276099;60;20404;-65
2023/04/23 08:39:47;0.00;0.00;0.62;0.00;0.00;0.62;2.30;1.77;;;27.00;22.50;;;;;;2276029;60;20438;-65
2023/04/23 08:42:44;0.00;0.00;0.62;0.00;0.00;0.62;2.43;1.93;;;27.00;22.50;;;;;;2276811;60;20749;-65
2023/04/23 08:45:30;0.00;0.00;0.62;0.00;0.00;0.62;2.73;2.20;;;27.00;22.50;;;;;;2276507;60;20353;-65
2023/04/23 08:48:15;0.00;0.00;0.62;0.00;0.00;0.62;2.40;1.97;;;27.00;22.60;;;;;;2276409;60;20468;-65
2023/04/23 08:51:04;0.00;0.00;0.62;0.00;0.00;0.62;2.80;2.30;;;27.00;22.50;;;;;;2276595;60;20411;-65
2023/04/23 08:53:53;0.00;0.00;0.62;0.00;0.00;0.62;3.00;2.40;;;27.00;22.60;;;;;;2275689;60;20377;-65
2023/04/23 08:56:39;0.00;0.00;0.62;0.00;0.00;0.62;2.33;2.00;;;27.00;22.50;;;;;;2276776;60;20380;-64
2023/04/23 08:59:25;0.00;0.00;0.62;0.00;0.00;0.62;2.30;2.10;;;27.00;22.50;;;;;;2276278;60;20381;-65
2023/04/23 09:02:10;0.00;0.00;0.62;0.00;0.00;0.62;2.57;2.13;;;27.00;22.60;;;;;;2276600;60;20427;-65
2023/04/23 09:04:55;0.00;0.00;0.62;0.00;0.00;0.62;2.60;2.00;;;27.00;22.60;;;;;;2276570;60;20471;-64
2023/04/23 09:07:41;0.00;0.00;0.62;0.00;0.00;0.62;2.80;2.13;;;27.00;22.50;;;;;;2276441;60;20424;-65
2023/04/23 09:10:26;0.00;0.00;0.62;0.00;0.00;0.62;2.37;2.00;;;27.00;22.60;;;;;;2276203;60;20510;-65
2023/04/23 09:13:12;0.00;0.00;0.62;0.00;0.00;0.62;2.87;2.40;;;27.00;23.10;;;;;;2279110;60;20912;-65
2023/04/23 09:15:56;0.00;0.00;0.62;0.00;0.00;0.62;2.50;2.20;;;27.00;22.60;;;;;;2276279;60;20926;-64
2023/04/23 09:18:41;0.00;0.00;0.62;0.00;0.00;0.62;3.37;2.50;;;27.00;22.60;;;;;;2276557;60;20462;-65
2023/04/23 09:21:26;0.00;0.00;0.62;0.00;0.00;0.62;3.23;2.60;;;27.00;22.60;;;;;;2276617;60;20362;-65
2023/04/23 09:24:16;0.00;0.00;0.62;0.00;0.00;0.62;2.80;2.03;;;27.00;22.60;;;;;;2276475;60;20365;-65
2023/04/23 09:27:02;0.00;0.00;0.62;0.00;0.00;0.62;2.73;2.43;;;27.00;22.60;;;;;;2276639;60;20478;-65
2023/04/23 09:29:51;0.00;0.00;0.62;0.00;0.00;0.62;2.90;2.30;;;27.00;22.60;;;;;;2276036;60;20385;-65
2023/04/23 09:32:39;0.00;0.00;0.62;0.00;0.00;0.62;3.07;2.13;;;27.00;22.60;;;;;;2276367;60;20365;-64
2023/04/23 09:35:27;0.00;0.00;0.62;0.00;0.00;0.62;2.93;2.30;;;27.00;22.60;;;;;;2276783;60;20415;-65
2023/04/23 09:38:11;0.00;0.00;0.62;0.00;0.00;0.62;2.80;2.47;;;27.00;22.60;;;;;;2276249;60;20357;-65
2023/04/23 09:40:57;0.00;0.00;0.62;0.00;0.00;0.62;3.30;2.77;;;27.10;22.70;;;;;;2276235;60;20963;-65
2023/04/23 09:43:42;0.00;0.00;0.62;0.00;0.00;0.62;3.50;2.43;;;27.00;22.60;;;;;;2276509;60;20361;-66
2023/04/23 09:46:37;0.00;0.00;0.62;0.00;0.00;0.62;2.90;2.33;;;27.10;22.70;;;;;;2276314;60;20401;-65
2023/04/23 09:49:23;0.00;0.00;0.62;0.00;0.00;0.62;3.23;2.47;;;27.10;22.70;;;;;;2275918;60;20829;-64
2023/04/23 09:52:08;0.00;0.00;0.62;0.00;0.00;0.62;3.03;2.30;;;27.10;22.70;;;;;;2276473;60;20399;-67
2023/04/23 09:54:56;0.00;0.00;0.62;0.00;0.00;0.62;2.90;2.60;;;27.10;22.70;;;;;;2278153;60;20358;-65
2023/04/23 09:57:43;0.00;0.00;0.62;0.00;0.00;0.62;4.70;3.10;;;27.10;22.70;;;;;;2276618;60;20357;-65
2023/04/23 10:00:32;0.00;0.00;0.62;0.00;0.00;0.62;3.73;3.00;;;27.10;22.70;;;;;;2275740;60;20784;-67
2023/04/23 10:03:26;0.00;0.00;0.62;0.00;0.00;0.62;3.10;2.53;;;27.10;22.70;;;;;;2276610;60;20365;-65
2023/04/23 10:06:14;0.00;0.00;0.62;0.00;0.00;0.62;2.87;2.57;;;27.10;22.70;;;;;;2276523;60;20439;-65
2023/04/23 10:08:58;0.00;0.00;0.62;0.00;0.00;0.62;2.47;2.03;;;27.10;22.80;;;;;;2275971;60;20423;-65
2023/04/23 10:11:43;0.00;0.00;0.62;0.00;0.00;0.62;3.87;3.20;;;27.10;22.70;;;;;;2276557;60;20462;-65
2023/04/23 10:14:30;0.00;0.00;0.62;0.00;0.00;0.62;3.07;2.77;;;27.20;22.90;;;;;;2276183;60;20411;-65
2023/04/23 10:17:15;0.00;0.00;0.62;0.00;0.00;0.62;2.90;2.60;;;27.10;22.80;;;;;;2276562;60;20758;-65
2023/04/23 10:20:00;0.00;0.00;0.62;0.00;0.00;0.62;2.83;2.40;;;27.20;22.80;;;;;;2276010;60;20950;-64
2023/04/23 10:22:46;0.00;0.00;0.62;0.00;0.00;0.62;3.17;2.53;;;27.20;22.80;;;;;;2276151;60;20400;-66
2023/04/23 10:25:31;0.00;0.00;0.62;0.00;0.00;0.62;5.00;4.30;;;27.20;22.80;;;;;;2279652;60;20362;-64
2023/04/23 10:28:25;0.00;0.00;0.62;0.00;0.00;0.62;4.23;3.83;;;27.20;22.80;;;;;;2279459;60;20543;-64
2023/04/23 10:31:11;0.00;0.00;0.62;0.00;0.00;0.62;4.40;3.80;;;27.20;22.70;;;;;;2279082;60;20361;-64
2023/04/23 10:33:57;0.00;0.00;0.62;0.00;0.00;0.62;4.57;3.77;;;27.20;22.60;;;;;;2278707;60;20738;-64
2023/04/23 10:36:42;0.00;0.00;0.62;0.00;0.00;0.62;4.30;3.97;;;27.20;22.50;;;;;;2278010;60;20415;-63
2023/04/23 10:39:35;0.00;0.00;0.62;0.00;0.00;0.62;7.30;6.60;;;27.20;22.30;;;;;;2276221;60;20389;-62
2023/04/23 10:42:26;0.00;0.00;0.62;0.00;0.00;0.62;4.50;4.10;;;27.20;22.10;;;;;;2276344;60;20781;-61
2023/04/23 10:45:15;0.00;0.00;0.62;0.00;0.00;0.62;5.67;5.07;;;27.20;22.00;;;;;;2276172;60;20404;-60
2023/04/23 10:48:05;0.00;0.00;0.62;0.00;0.00;0.62;5.93;4.10;;;27.20;21.90;;;;;;2276286;60;20385;-62
2023/04/23 10:51:00;0.00;0.00;0.62;0.00;0.00;0.62;3.97;3.50;;;27.20;22.00;;;;;;2277040;60;20426;-63
2023/04/23 10:53:59;0.00;0.00;0.62;0.00;0.00;0.62;4.63;4.23;;;27.20;22.10;;;;;;2277203;60;20384;-61
2023/04/23 10:56:58;0.00;0.00;0.62;0.00;0.00;0.62;6.40;5.03;;;27.20;21.90;;;;;;2276219;60;20765;-60